sensor_id;sensor_type;location;lat;lon;timestamp;pressure;altitude;pressure_sealevel;temperature;humidity
76074;BME280;64776;42.636;24.358;2023-01-25T00:03:00;91014.34;;;-0.64;90.23
76074;BME280;64776;42.636;24.358;2023-01-25T00:06:01;91014.31;;;-0.61;90.55
76074;BME280;64776;42.636;24.358;2023-01-25T00:09:02;91013.56;;;-0.61;90.41
76074;BME280;64776;42.636;24.358;2023-01-25T00:12:05;91009.09;;;-0.64;90.13
76074;BME280;64776;42.636;24.358;2023-01-25T00:15:06;91021.84;;;-0.66;89.84
76074;BME280;64776;42.636;24.358;2023-01-25T00:18:07;91013.59;;;-0.72;89.93
76074;BME280;64776;42.636;24.358;2023-01-25T00:21:12;91012.84;;;-0.69;90.35
76074;BME280;64776;42.636;24.358;2023-01-25T00:24:13;91018.09;;;-0.69;90.19
76074;BME280;64776;42.636;24.358;2023-01-25T00:27:15;91014.69;;;-0.66;89.63
76074;BME280;64776;42.636;24.358;2023-01-25T00:30:16;91019.63;;;-0.75;90.34
76074;BME280;64776;42.636;24.358;2023-01-25T00:33:39;91018.09;;;-0.69;90.39
76074;BME280;64776;42.636;24.358;2023-01-25T00:36:44;91018.06;;;-0.62;89.53
76074;BME280;64776;42.636;24.358;2023-01-25T00:39:44;91009.84;;;-0.64;89.30
76074;BME280;64776;42.636;24.358;2023-01-25T00:42:46;91007.59;;;-0.65;89.77
76074;BME280;64776;42.636;24.358;2023-01-25T00:45:47;91006.09;;;-0.70;89.71
76074;BME280;64776;42.636;24.358;2023-01-25T00:48:48;91008.03;;;-0.81;90.45
76074;BME280;64776;42.636;24.358;2023-01-25T00:51:50;91007.63;;;-0.76;89.91
76074;BME280;64776;42.636;24.358;2023-01-25T00:54:51;91004.25;;;-0.73;90.21
76074;BME280;64776;42.636;24.358;2023-01-25T00:57:53;91004.63;;;-0.71;89.97
76074;BME280;64776;42.636;24.358;2023-01-25T01:00:55;91003.91;;;-0.78;90.70
76074;BME280;64776;42.636;24.358;2023-01-25T01:03:56;91005.00;;;-0.76;90.33
76074;BME280;64776;42.636;24.358;2023-01-25T01:06:57;90997.56;;;-0.81;90.35
76074;BME280;64776;42.636;24.358;2023-01-25T01:09:57;90994.16;;;-0.78;90.47
76074;BME280;64776;42.636;24.358;2023-01-25T01:12:59;90994.16;;;-0.74;90.47
76074;BME280;64776;42.636;24.358;2023-01-25T01:16:02;90993.06;;;-0.77;90.32
76074;BME280;64776;42.636;24.358;2023-01-25T01:19:04;90997.94;;;-0.86;90.45
76074;BME280;64776;42.636;24.358;2023-01-25T01:22:05;90997.59;;;-0.92;90.45
76074;BME280;64776;42.636;24.358;2023-01-25T01:25:07;90989.38;;;-0.94;90.97
76074;BME280;64776;42.636;24.358;2023-01-25T01:28:09;90997.97;;;-0.93;90.98
76074;BME280;64776;42.636;24.358;2023-01-25T01:31:12;90998.38;;;-1.02;91.45
76074;BME280;64776;42.636;24.358;2023-01-25T01:34:13;91001.00;;;-1.02;90.89
76074;BME280;64776;42.636;24.358;2023-01-25T01:37:14;90995.00;;;-1.02;91.02
76074;BME280;64776;42.636;24.358;2023-01-25T01:40:16;90998.78;;;-1.10;91.49
76074;BME280;64776;42.636;24.358;2023-01-25T01:43:20;90995.78;;;-1.09;91.88
76074;BME280;64776;42.636;24.358;2023-01-25T01:46:25;90994.28;;;-1.13;91.52
76074;BME280;64776;42.636;24.358;2023-01-25T01:49:30;90989.06;;;-1.17;92.01
76074;BME280;64776;42.636;24.358;2023-01-25T01:52:35;90992.03;;;-1.11;91.33
76074;BME280;64776;42.636;24.358;2023-01-25T01:55:36;90980.81;;;-1.08;91.46
76074;BME280;64776;42.636;24.358;2023-01-25T01:58:40;90985.69;;;-1.14;91.31
76074;BME280;64776;42.636;24.358;2023-01-25T02:01:43;90988.66;;;-1.08;91.47
76074;BME280;64776;42.636;24.358;2023-01-25T02:04:46;90987.56;;;-1.07;91.40
76074;BME280;64776;42.636;24.358;2023-01-25T02:07:49;90978.56;;;-1.06;91.10
76074;BME280;64776;42.636;24.358;2023-01-25T02:10:53;90985.31;;;-1.12;90.26
76074;BME280;64776;42.636;24.358;2023-01-25T02:13:57;90977.84;;;-1.17;90.93
76074;BME280;64776;42.636;24.358;2023-01-25T02:16:59;90974.88;;;-1.16;91.11
76074;BME280;64776;42.636;24.358;2023-01-25T02:20:04;90977.47;;;-1.19;90.30
76074;BME280;64776;42.636;24.358;2023-01-25T02:23:11;90974.50;;;-1.18;91.36
76074;BME280;64776;42.636;24.358;2023-01-25T02:26:17;90977.84;;;-1.17;91.47
76074;BME280;64776;42.636;24.358;2023-01-25T02:29:19;90980.09;;;-1.12;91.25
76074;BME280;64776;42.636;24.358;2023-01-25T02:32:19;90967.34;;;-1.10;90.65
76074;BME280;64776;42.636;24.358;2023-01-25T02:35:22;90974.06;;;-1.09;90.72
76074;BME280;64776;42.636;24.358;2023-01-25T02:38:23;90974.06;;;-1.09;90.84
76074;BME280;64776;42.636;24.358;2023-01-25T02:41:29;90971.09;;;-1.11;91.11
76074;BME280;64776;42.636;24.358;2023-01-25T02:44:31;90970.28;;;-0.94;90.30
76074;BME280;64776;42.636;24.358;2023-01-25T02:47:32;90970.25;;;-0.84;90.35
76074;BME280;64776;42.636;24.358;2023-01-25T02:50:33;90964.63;;;-0.82;90.08
76074;BME280;64776;42.636;24.358;2023-01-25T02:53:34;90969.13;;;-0.79;89.52
76074;BME280;64776;42.636;24.358;2023-01-25T02:56:37;90962.75;;;-0.82;89.87
76074;BME280;64776;42.636;24.358;2023-01-25T02:59:38;90967.97;;;-0.74;89.60
76074;BME280;64776;42.636;24.358;2023-01-25T03:02:38;90967.97;;;-0.78;89.11
76074;BME280;64776;42.636;24.358;2023-01-25T03:05:39;90964.97;;;-0.73;89.14
76074;BME280;64776;42.636;24.358;2023-01-25T03:08:40;90971.69;;;-0.72;89.13
76074;BME280;64776;42.636;24.358;2023-01-25T03:11:42;90961.25;;;-0.79;88.74
76074;BME280;64776;42.636;24.358;2023-01-25T03:14:43;90959.00;;;-0.77;88.55
76074;BME280;64776;42.636;24.358;2023-01-25T03:17:44;90959.06;;;-0.95;89.16
76074;BME280;64776;42.636;24.358;2023-01-25T03:21:06;90956.16;;;-1.21;89.47
76074;BME280;64776;42.636;24.358;2023-01-25T03:24:08;90960.66;;;-1.25;89.48
76074;BME280;64776;42.636;24.358;2023-01-25T03:27:11;90964.41;;;-1.26;89.76
76074;BME280;64776;42.636;24.358;2023-01-25T03:30:12;90958.44;;;-1.34;89.99
76074;BME280;64776;42.636;24.358;2023-01-25T03:33:13;90962.94;;;-1.31;89.86
76074;BME280;64776;42.636;24.358;2023-01-25T03:36:14;90957.69;;;-1.27;89.97
76074;BME280;64776;42.636;24.358;2023-01-25T03:39:15;90958.44;;;-1.30;89.65
76074;BME280;64776;42.636;24.358;2023-01-25T03:42:18;90958.81;;;-1.28;89.48
76074;BME280;64776;42.636;24.358;2023-01-25T03:45:19;90968.16;;;-1.27;89.30
76074;BME280;64776;42.636;24.358;2023-01-25T03:48:21;90967.44;;;-1.35;89.05
76074;BME280;64776;42.636;24.358;2023-01-25T03:51:22;90965.97;;;-1.46;88.82
76074;BME280;64776;42.636;24.358;2023-01-25T03:54:23;90959.97;;;-1.54;88.70
76074;BME280;64776;42.636;24.358;2023-01-25T03:57:25;90961.47;;;-1.56;88.64
76074;BME280;64776;42.636;24.358;2023-01-25T04:00:26;90966.00;;;-1.68;88.97
76074;BME280;64776;42.636;24.358;2023-01-25T04:03:27;90971.97;;;-1.71;88.88
76074;BME280;64776;42.636;24.358;2023-01-25T04:06:28;90971.97;;;-1.78;89.09
76074;BME280;64776;42.636;24.358;2023-01-25T04:09:29;90969.72;;;-1.83;89.23
76074;BME280;64776;42.636;24.358;2023-01-25T04:12:31;90969.72;;;-1.93;89.36
76074;BME280;64776;42.636;24.358;2023-01-25T04:15:32;90970.50;;;-1.96;89.33
76074;BME280;64776;42.636;24.358;2023-01-25T04:18:33;90966.00;;;-1.96;89.92
76074;BME280;64776;42.636;24.358;2023-01-25T04:21:34;90961.53;;;-2.02;89.39
76074;BME280;64776;42.636;24.358;2023-01-25T04:24:35;90966.00;;;-2.03;89.59
76074;BME280;64776;42.636;24.358;2023-01-25T04:27:37;90975.72;;;-2.03;89.34
76074;BME280;64776;42.636;24.358;2023-01-25T04:30:38;90977.97;;;-1.98;89.20
76074;BME280;64776;42.636;24.358;2023-01-25T04:33:38;90973.47;;;-2.05;88.99
76074;BME280;64776;42.636;24.358;2023-01-25T04:36:39;90984.31;;;-2.17;89.39
76074;BME280;64776;42.636;24.358;2023-01-25T04:39:40;90993.25;;;-2.18;89.48
76074;BME280;64776;42.636;24.358;2023-01-25T04:42:42;90980.94;;;-2.17;89.39
76074;BME280;64776;42.636;24.358;2023-01-25T04:45:43;90983.19;;;-2.19;88.98
76074;BME280;64776;42.636;24.358;2023-01-25T04:48:44;90985.78;;;-2.26;89.53
76074;BME280;64776;42.636;24.358;2023-01-25T04:51:45;90982.44;;;-2.27;89.88
76074;BME280;64776;42.636;24.358;2023-01-25T04:54:46;90980.19;;;-2.25;89.99
76074;BME280;64776;42.636;24.358;2023-01-25T04:57:49;90988.03;;;-2.25;89.91
76074;BME280;64776;42.636;24.358;2023-01-25T05:00:50;90978.72;;;-2.19;89.09
76074;BME280;64776;42.636;24.358;2023-01-25T05:03:51;90988.78;;;-2.21;89.18
76074;BME280;64776;42.636;24.358;2023-01-25T05:06:52;90983.91;;;-2.33;90.23
76074;BME280;64776;42.636;24.358;2023-01-25T05:09:53;90983.53;;;-2.28;90.14
76074;BME280;64776;42.636;24.358;2023-01-25T05:12:55;90979.06;;;-2.31;89.94
76074;BME280;64776;42.636;24.358;2023-01-25T05:15:56;90983.19;;;-2.23;90.02
76074;BME280;64776;42.636;24.358;2023-01-25T05:18:57;90980.94;;;-2.28;90.16
76074;BME280;64776;42.636;24.358;2023-01-25T05:21:57;90977.19;;;-2.34;90.26
76074;BME280;64776;42.636;24.358;2023-01-25T05:24:58;90983.91;;;-2.40;90.45
76074;BME280;64776;42.636;24.358;2023-01-25T05:28:03;90982.78;;;-2.32;90.57
76074;BME280;64776;42.636;24.358;2023-01-25T05:31:04;90979.81;;;-2.34;90.32
76074;BME280;64776;42.636;24.358;2023-01-25T05:34:05;90983.53;;;-2.42;90.98
76074;BME280;64776;42.636;24.358;2023-01-25T05:37:07;90986.16;;;-2.31;90.94
76074;BME280;64776;42.636;24.358;2023-01-25T05:40:10;90983.88;;;-2.54;91.63
76074;BME280;64776;42.636;24.358;2023-01-25T05:43:13;90983.88;;;-2.58;91.93
76074;BME280;64776;42.636;24.358;2023-01-25T05:46:13;90997.28;;;-2.59;92.35
76074;BME280;64776;42.636;24.358;2023-01-25T05:49:15;90996.53;;;-2.63;92.48
76074;BME280;64776;42.636;24.358;2023-01-25T05:52:16;90997.31;;;-2.52;92.73
76074;BME280;64776;42.636;24.358;2023-01-25T05:55:17;90998.81;;;-2.47;92.37
76074;BME280;64776;42.636;24.358;2023-01-25T05:58:19;91001.44;;;-2.44;92.35
76074;BME280;64776;42.636;24.358;2023-01-25T06:01:20;91001.81;;;-2.45;92.09
76074;BME280;64776;42.636;24.358;2023-01-25T06:04:21;90997.31;;;-2.45;92.07
76074;BME280;64776;42.636;24.358;2023-01-25T06:07:22;90999.56;;;-2.40;92.11
76074;BME280;64776;42.636;24.358;2023-01-25T06:10:22;90997.34;;;-2.38;92.16
76074;BME280;64776;42.636;24.358;2023-01-25T06:13:25;90998.81;;;-2.40;91.93
76074;BME280;64776;42.636;24.358;2023-01-25T06:16:25;91000.31;;;-2.36;91.72
76074;BME280;64776;42.636;24.358;2023-01-25T06:19:27;90995.13;;;-2.25;91.16
76074;BME280;64776;42.636;24.358;2023-01-25T06:22:27;90998.47;;;-2.21;91.39
76074;BME280;64776;42.636;24.358;2023-01-25T06:25:28;91009.69;;;-2.35;90.95
76074;BME280;64776;42.636;24.358;2023-01-25T06:28:30;91013.00;;;-2.41;91.43
76074;BME280;64776;42.636;24.358;2023-01-25T06:31:32;91002.91;;;-2.43;91.66
76074;BME280;64776;42.636;24.358;2023-01-25T06:34:32;90996.22;;;-2.37;91.93
76074;BME280;64776;42.636;24.358;2023-01-25T06:37:33;91004.06;;;-2.30;91.89
76074;BME280;64776;42.636;24.358;2023-01-25T06:40:34;91007.81;;;-2.31;91.82
76074;BME280;64776;42.636;24.358;2023-01-25T06:43:36;91001.44;;;-2.37;92.09
76074;BME280;64776;42.636;24.358;2023-01-25T06:46:37;91003.31;;;-2.30;91.75
76074;BME280;64776;42.636;24.358;2023-01-25T06:49:38;90999.94;;;-2.34;91.97
76074;BME280;64776;42.636;24.358;2023-01-25T06:52:38;91000.34;;;-2.29;91.67
76074;BME280;64776;42.636;24.358;2023-01-25T06:55:39;90995.13;;;-2.18;91.69
76074;BME280;64776;42.636;24.358;2023-01-25T06:58:41;90987.66;;;-2.20;91.55
76074;BME280;64776;42.636;24.358;2023-01-25T07:01:42;90990.66;;;-2.25;91.23
76074;BME280;64776;42.636;24.358;2023-01-25T07:04:43;90988.41;;;-2.19;91.03
76074;BME280;64776;42.636;24.358;2023-01-25T07:07:44;90987.28;;;-2.25;91.09
76074;BME280;64776;42.636;24.358;2023-01-25T07:10:52;90985.41;;;-2.25;91.18
76074;BME280;64776;42.636;24.358;2023-01-25T07:13:54;90988.78;;;-2.21;90.96
76074;BME280;64776;42.636;24.358;2023-01-25T07:16:55;90987.28;;;-2.22;90.66
76074;BME280;64776;42.636;24.358;2023-01-25T07:19:56;90988.38;;;-2.26;91.02
76074;BME280;64776;42.636;24.358;2023-01-25T07:22:58;90986.16;;;-2.31;91.06
76074;BME280;64776;42.636;24.358;2023-01-25T07:25:59;90988.41;;;-2.23;90.95
76074;BME280;64776;42.636;24.358;2023-01-25T07:29:02;90989.88;;;-2.18;90.50
76074;BME280;64776;42.636;24.358;2023-01-25T07:32:03;90989.88;;;-2.22;90.71
76074;BME280;64776;42.636;24.358;2023-01-25T07:35:05;90998.09;;;-2.23;91.14
76074;BME280;64776;42.636;24.358;2023-01-25T07:38:05;90997.75;;;-2.15;90.69
76074;BME280;64776;42.636;24.358;2023-01-25T07:41:06;90994.38;;;-2.26;91.07
76074;BME280;64776;42.636;24.358;2023-01-25T07:44:10;91001.81;;;-2.24;90.70
76074;BME280;64776;42.636;24.358;2023-01-25T07:47:10;90995.84;;;-2.32;91.12
76074;BME280;64776;42.636;24.358;2023-01-25T07:50:12;90999.22;;;-2.35;90.84
76074;BME280;64776;42.636;24.358;2023-01-25T07:53:13;91007.06;;;-2.35;90.72
76074;BME280;64776;42.636;24.358;2023-01-25T07:56:13;91011.19;;;-2.27;90.51
76074;BME280;64776;42.636;24.358;2023-01-25T07:59:16;91005.94;;;-2.30;90.17
76074;BME280;64776;42.636;24.358;2023-01-25T08:02:16;91002.22;;;-2.33;90.38
76074;BME280;64776;42.636;24.358;2023-01-25T08:05:18;91002.22;;;-2.33;90.52
76074;BME280;64776;42.636;24.358;2023-01-25T08:08:19;90997.34;;;-2.41;90.37
76074;BME280;64776;42.636;24.358;2023-01-25T08:11:22;91008.53;;;-2.34;90.44
76074;BME280;64776;42.636;24.358;2023-01-25T08:14:24;91013.03;;;-2.31;90.05
76074;BME280;64776;42.636;24.358;2023-01-25T08:17:25;91011.56;;;-2.25;89.84
76074;BME280;64776;42.636;24.358;2023-01-25T08:20:26;91012.25;;;-2.38;89.64
76074;BME280;64776;42.636;24.358;2023-01-25T08:23:27;91011.53;;;-2.35;89.68
76074;BME280;64776;42.636;24.358;2023-01-25T08:26:28;91017.09;;;-2.55;89.49
76074;BME280;64776;42.636;24.358;2023-01-25T08:29:30;91021.13;;;-2.68;90.04
76074;BME280;64776;42.636;24.358;2023-01-25T08:32:31;91024.16;;;-2.62;90.21
76074;BME280;64776;42.636;24.358;2023-01-25T08:35:32;91019.66;;;-2.65;89.79
76074;BME280;64776;42.636;24.358;2023-01-25T08:38:34;91023.44;;;-2.49;89.89
76074;BME280;64776;42.636;24.358;2023-01-25T08:41:35;91015.59;;;-2.56;89.30
76074;BME280;64776;42.636;24.358;2023-01-25T08:44:38;91012.22;;;-2.49;89.30
76074;BME280;64776;42.636;24.358;2023-01-25T08:47:39;91021.97;;;-2.46;88.99
76074;BME280;64776;42.636;24.358;2023-01-25T08:50:44;91021.22;;;-2.47;88.92
76074;BME280;64776;42.636;24.358;2023-01-25T08:53:45;91024.97;;;-2.33;88.96
76074;BME280;64776;42.636;24.358;2023-01-25T08:56:46;91027.22;;;-2.32;88.61
76074;BME280;64776;42.636;24.358;2023-01-25T08:59:48;91020.50;;;-2.33;88.25
76074;BME280;64776;42.636;24.358;2023-01-25T09:02:49;91016.78;;;-2.18;88.07
76074;BME280;64776;42.636;24.358;2023-01-25T09:05:52;91022.03;;;-2.04;87.71
76074;BME280;64776;42.636;24.358;2023-01-25T09:08:53;91016.06;;;-2.01;87.05
76074;BME280;64776;42.636;24.358;2023-01-25T09:11:54;91013.44;;;-2.04;87.79
76074;BME280;64776;42.636;24.358;2023-01-25T09:14:56;91004.88;;;-1.94;87.75
76074;BME280;64776;42.636;24.358;2023-01-25T09:17:57;91001.13;;;-1.86;86.44
76074;BME280;64776;42.636;24.358;2023-01-25T09:20:59;90995.88;;;-1.93;86.64
76074;BME280;64776;42.636;24.358;2023-01-25T09:24:00;91006.72;;;-2.02;86.84
76074;BME280;64776;42.636;24.358;2023-01-25T09:27:01;90994.41;;;-1.91;87.38
76074;BME280;64776;42.636;24.358;2023-01-25T09:30:04;90984.28;;;-1.85;86.68
76074;BME280;64776;42.636;24.358;2023-01-25T09:33:05;90975.72;;;-1.93;86.86
76074;BME280;64776;42.636;24.358;2023-01-25T09:36:06;90974.97;;;-1.90;87.30
76074;BME280;64776;42.636;24.358;2023-01-25T09:39:08;90965.63;;;-1.77;86.65
76074;BME280;64776;42.636;24.358;2023-01-25T09:42:43;90963.00;;;-1.70;86.57
76074;BME280;64776;42.636;24.358;2023-01-25T09:45:52;90961.50;;;-1.71;86.51
76074;BME280;64776;42.636;24.358;2023-01-25T09:49:00;90955.53;;;-1.68;86.19
76074;BME280;64776;42.636;24.358;2023-01-25T09:52:15;90948.78;;;-1.69;86.08
76074;BME280;64776;42.636;24.358;2023-01-25T09:55:23;90940.53;;;-1.49;86.50
76074;BME280;64776;42.636;24.358;2023-01-25T09:58:30;90933.00;;;-1.33;85.97
76074;BME280;64776;42.636;24.358;2023-01-25T10:01:41;90929.97;;;-1.14;85.89
76074;BME280;64776;42.636;24.358;2023-01-25T10:04:44;90918.72;;;-1.11;84.06
76074;BME280;64776;42.636;24.358;2023-01-25T10:07:54;90920.97;;;-1.06;84.53
76074;BME280;64776;42.636;24.358;2023-01-25T10:10:59;90908.56;;;-0.99;84.60
76074;BME280;64776;42.636;24.358;2023-01-25T10:14:11;90912.31;;;-0.96;84.21
76074;BME280;64776;42.636;24.358;2023-01-25T10:17:21;90904.88;;;-1.01;84.62
76074;BME280;64776;42.636;24.358;2023-01-25T10:20:29;90899.25;;;-1.03;84.25
76074;BME280;64776;42.636;24.358;2023-01-25T10:23:55;90895.84;;;-0.93;84.58
76074;BME280;64776;42.636;24.358;2023-01-25T10:27:07;90892.41;;;-0.83;84.41
76074;BME280;64776;42.636;24.358;2023-01-25T10:30:22;90884.84;;;-0.67;84.20
76074;BME280;64776;42.636;24.358;2023-01-25T10:33:28;90877.66;;;-0.59;83.42
76074;BME280;64776;42.636;24.358;2023-01-25T10:36:30;90870.56;;;-0.59;83.89
76074;BME280;64776;42.636;24.358;2023-01-25T10:39:31;90877.00;;;-0.70;83.51
76074;BME280;64776;42.636;24.358;2023-01-25T10:42:40;90864.63;;;-0.66;84.38
76074;BME280;64776;42.636;24.358;2023-01-25T10:45:43;90860.75;;;-0.51;83.40
76074;BME280;64776;42.636;24.358;2023-01-25T10:48:46;90858.53;;;-0.53;82.78
76074;BME280;64776;42.636;24.358;2023-01-25T10:51:46;90849.56;;;-0.52;83.76
76074;BME280;64776;42.636;24.358;2023-01-25T10:54:50;90855.88;;;-0.49;84.01
76074;BME280;64776;42.636;24.358;2023-01-25T10:58:31;90854.00;;;-0.49;84.46
76074;BME280;64776;42.636;24.358;2023-01-25T11:01:33;90842.41;;;-0.48;83.62
76074;BME280;64776;42.636;24.358;2023-01-25T11:04:36;90842.88;;;-0.63;84.21
76074;BME280;64776;42.636;24.358;2023-01-25T11:07:37;90850.44;;;-0.76;85.07
76074;BME280;64776;42.636;24.358;2023-01-25T11:10:37;90850.50;;;-0.83;86.07
76074;BME280;64776;42.636;24.358;2023-01-25T11:13:39;90842.03;;;-1.08;86.11
76074;BME280;64776;42.636;24.358;2023-01-25T11:16:44;90838.72;;;-1.19;86.37
76074;BME280;64776;42.636;24.358;2023-01-25T11:19:47;90832.75;;;-1.23;87.09
76074;BME280;64776;42.636;24.358;2023-01-25T11:22:49;90832.09;;;-1.41;87.12
76074;BME280;64776;42.636;24.358;2023-01-25T11:25:51;90834.34;;;-1.43;87.28
76074;BME280;64776;42.636;24.358;2023-01-25T11:29:06;90828.41;;;-1.54;87.51
76074;BME280;64776;42.636;24.358;2023-01-25T11:32:15;90828.03;;;-1.49;87.99
76074;BME280;64776;42.636;24.358;2023-01-25T11:35:24;90825.78;;;-1.54;87.58
76074;BME280;64776;42.636;24.358;2023-01-25T11:38:29;90826.63;;;-1.72;88.42
76074;BME280;64776;42.636;24.358;2023-01-25T11:41:33;90824.69;;;-1.60;88.13
76074;BME280;64776;42.636;24.358;2023-01-25T11:45:02;90826.59;;;-1.68;88.47
76074;BME280;64776;42.636;24.358;2023-01-25T11:48:23;90812.78;;;-1.65;88.46
76074;BME280;64776;42.636;24.358;2023-01-25T11:51:36;90811.97;;;-1.58;88.30
76074;BME280;64776;42.636;24.358;2023-01-25T11:54:47;90805.66;;;-1.65;88.06
76074;BME280;64776;42.636;24.358;2023-01-25T11:58:00;90804.56;;;-1.63;87.99
76074;BME280;64776;42.636;24.358;2023-01-25T12:01:09;90803.78;;;-1.64;87.78
76074;BME280;64776;42.636;24.358;2023-01-25T12:04:40;90801.94;;;-1.71;88.32
76074;BME280;64776;42.636;24.358;2023-01-25T12:07:50;90795.59;;;-1.73;88.65
76074;BME280;64776;42.636;24.358;2023-01-25T12:10:59;90795.59;;;-1.70;88.73
76074;BME280;64776;42.636;24.358;2023-01-25T12:14:10;90787.34;;;-1.65;88.60
76074;BME280;64776;42.636;24.358;2023-01-25T12:17:26;90793.31;;;-1.60;87.88
76074;BME280;64776;42.636;24.358;2023-01-25T12:20:39;90794.09;;;-1.63;87.99
76074;BME280;64776;42.636;24.358;2023-01-25T12:23:58;90783.63;;;-1.71;88.40
76074;BME280;64776;42.636;24.358;2023-01-25T12:27:09;90778.78;;;-1.72;88.73
76074;BME280;64776;42.636;24.358;2023-01-25T12:30:19;90775.47;;;-1.80;88.88
76074;BME280;64776;42.636;24.358;2023-01-25T12:33:24;90770.63;;;-1.85;89.25
76074;BME280;64776;42.636;24.358;2023-01-25T12:36:30;90766.94;;;-1.94;89.76
76074;BME280;64776;42.636;24.358;2023-01-25T12:39:40;90762.84;;;-1.99;89.53
76074;BME280;64776;42.636;24.358;2023-01-25T12:42:50;90751.97;;;-1.90;89.55
76074;BME280;64776;42.636;24.358;2023-01-25T12:45:52;90750.06;;;-1.83;89.63
76074;BME280;64776;42.636;24.358;2023-01-25T12:48:58;90745.94;;;-1.77;89.29
76074;BME280;64776;42.636;24.358;2023-01-25T12:52:02;90745.53;;;-1.72;88.74
76074;BME280;64776;42.636;24.358;2023-01-25T12:55:13;90754.91;;;-1.74;88.85
76074;BME280;64776;42.636;24.358;2023-01-25T12:58:19;90744.13;;;-1.90;89.18
76074;BME280;64776;42.636;24.358;2023-01-25T13:01:24;90749.34;;;-1.94;89.94
76074;BME280;64776;42.636;24.358;2023-01-25T13:04:43;90755.34;;;-1.93;89.82
76074;BME280;64776;42.636;24.358;2023-01-25T13:08:00;90745.63;;;-1.93;89.58
76074;BME280;64776;42.636;24.358;2023-01-25T13:11:11;90747.84;;;-1.91;89.80
76074;BME280;64776;42.636;24.358;2023-01-25T13:14:34;90749.06;;;-2.06;89.95
76074;BME280;64776;42.636;24.358;2023-01-25T13:17:36;90754.63;;;-2.08;89.82
76074;BME280;64776;42.636;24.358;2023-01-25T13:20:49;90753.09;;;-1.95;89.96
76074;BME280;64776;42.636;24.358;2023-01-25T13:24:06;90746.75;;;-1.90;89.73
76074;BME280;64776;42.636;24.358;2023-01-25T13:27:33;90740.41;;;-1.93;89.54
76074;BME280;64776;42.636;24.358;2023-01-25T13:30:34;90740.41;;;-1.93;90.00
76074;BME280;64776;42.636;24.358;2023-01-25T13:33:35;90742.31;;;-2.04;89.71
76074;BME280;64776;42.636;24.358;2023-01-25T13:36:43;90747.59;;;-2.14;90.35
76074;BME280;64776;42.636;24.358;2023-01-25T13:39:46;90738.22;;;-2.12;90.84
76074;BME280;64776;42.636;24.358;2023-01-25T13:42:59;90738.97;;;-2.04;90.06
76074;BME280;64776;42.636;24.358;2023-01-25T13:46:03;90732.94;;;-1.98;89.65
76074;BME280;64776;42.636;24.358;2023-01-25T13:49:16;90732.19;;;-1.95;89.80
76074;BME280;64776;42.636;24.358;2023-01-25T13:52:23;90734.47;;;-2.00;89.64
76074;BME280;64776;42.636;24.358;2023-01-25T13:55:24;90738.94;;;-2.01;90.00
76074;BME280;64776;42.636;24.358;2023-01-25T13:58:28;90743.47;;;-2.08;89.93
76074;BME280;64776;42.636;24.358;2023-01-25T14:01:31;90742.69;;;-2.05;89.93
76074;BME280;64776;42.636;24.358;2023-01-25T14:04:33;90750.19;;;-2.18;90.21
76074;BME280;64776;42.636;24.358;2023-01-25T14:07:34;90736.75;;;-2.16;90.38
76074;BME280;64776;42.636;24.358;2023-01-25T14:10:35;90742.72;;;-2.09;89.99
76074;BME280;64776;42.636;24.358;2023-01-25T14:13:54;90748.69;;;-2.12;90.41
76074;BME280;64776;42.636;24.358;2023-01-25T14:17:14;90758.06;;;-2.25;90.66
76074;BME280;64776;42.636;24.358;2023-01-25T14:20:19;90770.38;;;-2.32;90.92
76074;BME280;64776;42.636;24.358;2023-01-25T14:23:22;90761.06;;;-2.33;90.43
76074;BME280;64776;42.636;24.358;2023-01-25T14:26:25;90766.69;;;-2.42;90.70
76074;BME280;64776;42.636;24.358;2023-01-25T14:29:28;90762.94;;;-2.37;90.89
76074;BME280;64776;42.636;24.358;2023-01-25T14:32:29;90759.94;;;-2.36;90.79
76074;BME280;64776;42.636;24.358;2023-01-25T14:35:39;90771.13;;;-2.32;90.74
76074;BME280;64776;42.636;24.358;2023-01-25T14:38:41;90758.06;;;-2.32;90.22
76074;BME280;64776;42.636;24.358;2023-01-25T14:41:52;90750.59;;;-2.37;90.53
76074;BME280;64776;42.636;24.358;2023-01-25T14:44:56;90757.72;;;-2.44;91.21
76074;BME280;64776;42.636;24.358;2023-01-25T14:47:56;90761.81;;;-2.47;91.35
76074;BME280;64776;42.636;24.358;2023-01-25T14:51:02;90755.50;;;-2.46;91.27
76074;BME280;64776;42.636;24.358;2023-01-25T14:54:13;90752.50;;;-2.48;91.24
76074;BME280;64776;42.636;24.358;2023-01-25T14:57:28;90737.94;;;-2.49;91.21
76074;BME280;64776;42.636;24.358;2023-01-25T15:00:32;90745.81;;;-2.53;91.24
76074;BME280;64776;42.636;24.358;2023-01-25T15:03:33;90736.84;;;-2.52;91.01
76074;BME280;64776;42.636;24.358;2023-01-25T15:06:43;90730.91;;;-2.56;90.92
76074;BME280;64776;42.636;24.358;2023-01-25T15:10:00;90732.00;;;-2.53;91.16
76074;BME280;64776;42.636;24.358;2023-01-25T15:13:03;90735.72;;;-2.47;90.83
76074;BME280;64776;42.636;24.358;2023-01-25T15:16:06;90733.09;;;-2.43;90.86
76074;BME280;64776;42.636;24.358;2023-01-25T15:19:20;90733.88;;;-2.57;91.13
76074;BME280;64776;42.636;24.358;2023-01-25T15:22:21;90727.13;;;-2.44;90.89
76074;BME280;64776;42.636;24.358;2023-01-25T15:25:23;90739.81;;;-2.46;91.03
76074;BME280;64776;42.636;24.358;2023-01-25T15:28:25;90742.44;;;-2.46;90.99
76074;BME280;64776;42.636;24.358;2023-01-25T15:31:30;90743.97;;;-2.56;91.10
76074;BME280;64776;42.636;24.358;2023-01-25T15:34:32;90748.44;;;-2.63;91.17
76074;BME280;64776;42.636;24.358;2023-01-25T15:37:32;90761.47;;;-2.63;91.42
76074;BME280;64776;42.636;24.358;2023-01-25T15:40:33;90764.50;;;-2.68;91.02
76074;BME280;64776;42.636;24.358;2023-01-25T15:43:34;90761.88;;;-2.68;91.44
76074;BME280;64776;42.636;24.358;2023-01-25T15:46:38;90758.50;;;-2.55;91.13
76074;BME280;64776;42.636;24.358;2023-01-25T15:49:39;90768.94;;;-2.47;90.94
76074;BME280;64776;42.636;24.358;2023-01-25T15:52:40;90761.06;;;-2.40;91.05
76074;BME280;64776;42.636;24.358;2023-01-25T15:55:41;90758.81;;;-2.28;90.32
76074;BME280;64776;42.636;24.358;2023-01-25T15:58:44;90762.94;;;-2.27;89.93
76074;BME280;64776;42.636;24.358;2023-01-25T16:01:48;90763.69;;;-2.51;90.06
76074;BME280;64776;42.636;24.358;2023-01-25T16:04:48;90761.47;;;-2.49;90.21